Аэропорт: Витязево. Анапа

ICAO: URKA

METAR:
2019-09-21 16:00:00
URKA 211600Z 34003MPS 9999 BKN/// 12/05 Q1021 R04/010070 NOSIG RMK QFE761/1015
METAR:
2019-09-21 13:53:00
TAF URKA 211353Z 2115/2215 30008G13MPS 9999 BKN030CB TEMPO 2118/2206 30003G08MPS 3100 BR SCT011 BKN020CB BECMG 2206/2208 25008G14MPS